This is the latest recevied weather packets stored in our database for station/object DL2RXE-13. If no packets are shown the sender has not sent any weather packets the latest 10 day(s).
| Time | Temp. | Humidity | Pressure | Rain* | Wind** | Luminosity | Snow |
|---|---|---|---|---|---|---|---|
| 1777715429 | 22.22° C | 44% | 1022.4 hPa | 0 mm | - | 592 W/m² | - |
| 1777713029 | 21.67° C | 47% | 1022.8 hPa | 0 mm | - | 596 W/m² | - |
| 1777711229 | 20.56° C | 48% | 1023 hPa | 0 mm | - | 608 W/m² | - |
| 1777710629 | 20.56° C | 47% | 1023 hPa | 0 mm | - | 513 W/m² | - |
| 1777707029 | 16.67° C | 62% | 1023.5 hPa | 0 mm | - | 316 W/m² | - |
| 1777706469 | 16.11° C | 61% | 1023.5 hPa | 0 mm | - | 306 W/m² | - |
| 1777705849 | 15.56° C | 66% | 1023.5 hPa | 0 mm | - | 292 W/m² | - |
| 1777704632 | 14.44° C | 72% | 1023.6 hPa | 0 mm | - | 243 W/m² | - |
| 1777704031 | 13.89° C | 73% | 1023.5 hPa | 0 mm | - | 234 W/m² | - |
| 1777702229 | 11.67° C | 76% | 1023.7 hPa | 0 mm | - | 163 W/m² | - |
| 1777699829 | 9.44° C | 83% | 1023.8 hPa | 0 mm | - | 66 W/m² | - |
| 1777690228 | 2.78° C | 97% | 1024 hPa | 0 mm | - | 0 W/m² | - |
| 1777688451 | 3.89° C | 97% | 1024.2 hPa | 0 mm | - | 0 W/m² | - |
| 1777684229 | 3.89° C | 96% | 1024.5 hPa | 0 mm | - | 0 W/m² | - |
| 1777683041 | 5° C | 96% | 1024.6 hPa | 0 mm | - | 0 W/m² | - |
| 1777680642 | 4.44° C | 94% | 1024.9 hPa | 0 mm | - | 0 W/m² | - |
| 1777680043 | 5° C | 94% | 1024.9 hPa | 0 mm | - | 0 W/m² | - |
| 1777678844 | 5° C | 93% | 1025 hPa | 0 mm | - | 0 W/m² | - |
| 1777676450 | 5.56° C | 91% | 1025.2 hPa | 0 mm | - | 0 W/m² | - |
| 1777673442 | 6.67° C | 88% | 1025.4 hPa | 0 mm | - | 0 W/m² | - |
| 1777670442 | 8.33° C | 82% | 1025.4 hPa | 0 mm | - | 0 W/m² | - |
| 1777669842 | 8.89° C | 82% | 1025.6 hPa | 0 mm | - | 0 W/m² | - |
| 1777667451 | 8.89° C | 82% | 1025.6 hPa | 0 mm | - | 0 W/m² | - |
| 1777666845 | 10° C | 77% | 1025.8 hPa | 0 mm | - | 0 W/m² | - |
| 1777666282 | 10.56° C | 75% | 1025.8 hPa | 0 mm | - | 0 W/m² | - |
* Rain latest hour (hover to see other rain measurements)
** Current wind speed in m/s (hover to see current wind gust speed)